sensor_id;sensor_type;location;lat;lon;timestamp;temperature;humidity
31619;DHT22;18230;51.502;7.108;2023-07-09T00:02:33;26.50;99.90
31619;DHT22;18230;51.502;7.108;2023-07-09T00:07:34;26.40;99.90
31619;DHT22;18230;51.502;7.108;2023-07-09T00:12:35;26.20;99.90
31619;DHT22;18230;51.502;7.108;2023-07-09T00:17:36;26.20;99.90
31619;DHT22;18230;51.502;7.108;2023-07-09T00:22:37;26.20;99.90
31619;DHT22;18230;51.502;7.108;2023-07-09T00:27:40;26.10;99.90
31619;DHT22;18230;51.502;7.108;2023-07-09T00:32:44;26.00;99.90
31619;DHT22;18230;51.502;7.108;2023-07-09T00:37:45;25.90;99.90
31619;DHT22;18230;51.502;7.108;2023-07-09T00:42:48;25.80;99.90
31619;DHT22;18230;51.502;7.108;2023-07-09T00:48:00;25.70;99.90
31619;DHT22;18230;51.502;7.108;2023-07-09T00:53:05;25.70;99.90
31619;DHT22;18230;51.502;7.108;2023-07-09T00:58:12;25.60;99.90
31619;DHT22;18230;51.502;7.108;2023-07-09T01:03:29;25.60;99.90
31619;DHT22;18230;51.502;7.108;2023-07-09T01:08:32;25.40;99.90
31619;DHT22;18230;51.502;7.108;2023-07-09T01:13:34;25.30;99.90
31619;DHT22;18230;51.502;7.108;2023-07-09T01:18:35;25.10;99.90
31619;DHT22;18230;51.502;7.108;2023-07-09T01:23:37;25.00;99.90
31619;DHT22;18230;51.502;7.108;2023-07-09T01:28:38;24.90;99.90
31619;DHT22;18230;51.502;7.108;2023-07-09T01:33:43;24.90;99.90
31619;DHT22;18230;51.502;7.108;2023-07-09T01:38:45;25.00;99.90
31619;DHT22;18230;51.502;7.108;2023-07-09T01:43:45;24.90;99.90
31619;DHT22;18230;51.502;7.108;2023-07-09T01:48:46;24.90;99.90
31619;DHT22;18230;51.502;7.108;2023-07-09T01:53:47;24.90;99.90
31619;DHT22;18230;51.502;7.108;2023-07-09T01:58:48;24.90;99.90
31619;DHT22;18230;51.502;7.108;2023-07-09T02:03:49;24.80;99.90
31619;DHT22;18230;51.502;7.108;2023-07-09T02:08:50;24.80;99.90
31619;DHT22;18230;51.502;7.108;2023-07-09T02:13:50;24.70;99.90
31619;DHT22;18230;51.502;7.108;2023-07-09T02:18:51;24.60;99.90
31619;DHT22;18230;51.502;7.108;2023-07-09T02:23:52;24.50;99.90
31619;DHT22;18230;51.502;7.108;2023-07-09T02:28:54;24.40;99.90
31619;DHT22;18230;51.502;7.108;2023-07-09T02:33:54;24.20;99.90
31619;DHT22;18230;51.502;7.108;2023-07-09T02:38:55;24.10;99.90
31619;DHT22;18230;51.502;7.108;2023-07-09T02:43:56;23.90;99.90
31619;DHT22;18230;51.502;7.108;2023-07-09T02:48:57;23.90;99.90
31619;DHT22;18230;51.502;7.108;2023-07-09T02:54:00;23.90;99.90
31619;DHT22;18230;51.502;7.108;2023-07-09T02:59:01;23.90;99.90
31619;DHT22;18230;51.502;7.108;2023-07-09T03:04:03;23.90;99.90
31619;DHT22;18230;51.502;7.108;2023-07-09T03:09:04;23.80;99.90
31619;DHT22;18230;51.502;7.108;2023-07-09T03:14:05;23.70;99.90
31619;DHT22;18230;51.502;7.108;2023-07-09T03:19:06;23.60;99.90
31619;DHT22;18230;51.502;7.108;2023-07-09T03:24:07;23.50;99.90
31619;DHT22;18230;51.502;7.108;2023-07-09T03:29:08;23.40;99.90
31619;DHT22;18230;51.502;7.108;2023-07-09T03:34:09;23.30;99.90
31619;DHT22;18230;51.502;7.108;2023-07-09T03:39:10;23.20;99.90
31619;DHT22;18230;51.502;7.108;2023-07-09T03:44:11;23.20;99.90
31619;DHT22;18230;51.502;7.108;2023-07-09T03:49:11;23.20;99.90
31619;DHT22;18230;51.502;7.108;2023-07-09T03:54:12;23.20;99.90
31619;DHT22;18230;51.502;7.108;2023-07-09T03:59:13;23.20;99.90
31619;DHT22;18230;51.502;7.108;2023-07-09T04:04:14;23.20;99.90
31619;DHT22;18230;51.502;7.108;2023-07-09T04:09:14;23.10;99.90
31619;DHT22;18230;51.502;7.108;2023-07-09T04:14:15;23.20;99.90
31619;DHT22;18230;51.502;7.108;2023-07-09T04:19:16;23.20;99.90
31619;DHT22;18230;51.502;7.108;2023-07-09T04:24:18;23.30;99.90
31619;DHT22;18230;51.502;7.108;2023-07-09T04:29:18;23.30;99.90
31619;DHT22;18230;51.502;7.108;2023-07-09T04:34:19;23.80;99.90
31619;DHT22;18230;51.502;7.108;2023-07-09T04:39:20;23.60;99.90
31619;DHT22;18230;51.502;7.108;2023-07-09T04:44:21;23.50;99.90
31619;DHT22;18230;51.502;7.108;2023-07-09T04:49:21;23.60;99.90
31619;DHT22;18230;51.502;7.108;2023-07-09T04:54:23;23.80;99.90
31619;DHT22;18230;51.502;7.108;2023-07-09T04:59:24;24.10;99.90
31619;DHT22;18230;51.502;7.108;2023-07-09T05:04:25;24.30;99.90
31619;DHT22;18230;51.502;7.108;2023-07-09T05:09:26;24.50;99.90
31619;DHT22;18230;51.502;7.108;2023-07-09T05:14:27;24.70;99.90
31619;DHT22;18230;51.502;7.108;2023-07-09T05:19:28;24.80;99.90
31619;DHT22;18230;51.502;7.108;2023-07-09T05:24:29;24.80;99.90
31619;DHT22;18230;51.502;7.108;2023-07-09T05:29:29;25.00;99.90
31619;DHT22;18230;51.502;7.108;2023-07-09T05:34:30;25.10;99.90
31619;DHT22;18230;51.502;7.108;2023-07-09T05:39:31;25.40;99.90
31619;DHT22;18230;51.502;7.108;2023-07-09T05:44:31;25.50;99.90
31619;DHT22;18230;51.502;7.108;2023-07-09T05:49:32;25.80;99.90
31619;DHT22;18230;51.502;7.108;2023-07-09T05:54:33;26.30;99.90
31619;DHT22;18230;51.502;7.108;2023-07-09T05:59:34;26.60;99.90
31619;DHT22;18230;51.502;7.108;2023-07-09T06:04:35;26.60;99.90
31619;DHT22;18230;51.502;7.108;2023-07-09T06:09:36;26.70;99.90
31619;DHT22;18230;51.502;7.108;2023-07-09T06:14:37;26.90;99.90
31619;DHT22;18230;51.502;7.108;2023-07-09T06:19:38;27.10;99.90
31619;DHT22;18230;51.502;7.108;2023-07-09T06:24:39;27.20;99.90
31619;DHT22;18230;51.502;7.108;2023-07-09T06:29:40;27.30;99.90
31619;DHT22;18230;51.502;7.108;2023-07-09T06:34:40;27.60;99.90
31619;DHT22;18230;51.502;7.108;2023-07-09T06:39:41;27.60;99.90
31619;DHT22;18230;51.502;7.108;2023-07-09T06:44:42;27.80;99.90
31619;DHT22;18230;51.502;7.108;2023-07-09T06:49:43;28.00;99.90
31619;DHT22;18230;51.502;7.108;2023-07-09T06:54:43;28.10;99.90
31619;DHT22;18230;51.502;7.108;2023-07-09T06:59:44;28.30;99.90
31619;DHT22;18230;51.502;7.108;2023-07-09T07:04:45;28.50;99.90
31619;DHT22;18230;51.502;7.108;2023-07-09T07:09:46;28.80;99.90
31619;DHT22;18230;51.502;7.108;2023-07-09T07:14:46;29.00;99.90
31619;DHT22;18230;51.502;7.108;2023-07-09T07:19:49;29.10;99.90
31619;DHT22;18230;51.502;7.108;2023-07-09T07:24:50;29.20;99.90
31619;DHT22;18230;51.502;7.108;2023-07-09T07:29:50;29.40;99.90
31619;DHT22;18230;51.502;7.108;2023-07-09T07:34:51;29.60;99.90
31619;DHT22;18230;51.502;7.108;2023-07-09T07:39:52;29.70;99.90
31619;DHT22;18230;51.502;7.108;2023-07-09T07:44:53;29.80;99.90
31619;DHT22;18230;51.502;7.108;2023-07-09T07:49:54;29.90;99.90
31619;DHT22;18230;51.502;7.108;2023-07-09T07:54:55;30.20;99.90
31619;DHT22;18230;51.502;7.108;2023-07-09T07:59:55;30.40;99.90
31619;DHT22;18230;51.502;7.108;2023-07-09T08:04:56;30.50;99.90
31619;DHT22;18230;51.502;7.108;2023-07-09T08:09:57;30.60;99.90
31619;DHT22;18230;51.502;7.108;2023-07-09T08:14:58;30.90;99.90
31619;DHT22;18230;51.502;7.108;2023-07-09T08:19:58;31.00;99.90
31619;DHT22;18230;51.502;7.108;2023-07-09T08:24:59;31.30;99.90
31619;DHT22;18230;51.502;7.108;2023-07-09T08:30:00;31.40;99.90
31619;DHT22;18230;51.502;7.108;2023-07-09T08:35:01;31.50;99.90
31619;DHT22;18230;51.502;7.108;2023-07-09T08:40:02;31.60;99.90
31619;DHT22;18230;51.502;7.108;2023-07-09T08:50:25;32.00;99.90
31619;DHT22;18230;51.502;7.108;2023-07-09T08:55:31;32.10;99.90
31619;DHT22;18230;51.502;7.108;2023-07-09T09:05:46;32.40;99.70
31619;DHT22;18230;51.502;7.108;2023-07-09T09:10:56;32.60;99.50
31619;DHT22;18230;51.502;7.108;2023-07-09T09:16:04;32.90;98.10
31619;DHT22;18230;51.502;7.108;2023-07-09T09:21:28;32.80;97.60
31619;DHT22;18230;51.502;7.108;2023-07-09T09:26:33;32.90;96.10
31619;DHT22;18230;51.502;7.108;2023-07-09T09:31:34;33.20;96.10
31619;DHT22;18230;51.502;7.108;2023-07-09T09:36:37;33.40;94.90
31619;DHT22;18230;51.502;7.108;2023-07-09T09:41:38;33.50;92.50
31619;DHT22;18230;51.502;7.108;2023-07-09T09:46:38;33.50;92.70
31619;DHT22;18230;51.502;7.108;2023-07-09T09:51:41;33.70;91.50
31619;DHT22;18230;51.502;7.108;2023-07-09T09:56:44;33.90;90.50
31619;DHT22;18230;51.502;7.108;2023-07-09T10:01:45;34.00;90.50
31619;DHT22;18230;51.502;7.108;2023-07-09T10:06:48;34.20;88.80
31619;DHT22;18230;51.502;7.108;2023-07-09T10:33:08;34.50;82.80
31619;DHT22;18230;51.502;7.108;2023-07-09T10:38:26;34.70;82.00
31619;DHT22;18230;51.502;7.108;2023-07-09T10:48:58;34.80;79.50
31619;DHT22;18230;51.502;7.108;2023-07-09T10:59:32;34.90;76.40
31619;DHT22;18230;51.502;7.108;2023-07-09T11:04:40;35.00;77.00
31619;DHT22;18230;51.502;7.108;2023-07-09T11:09:44;35.20;74.60
31619;DHT22;18230;51.502;7.108;2023-07-09T11:14:55;35.30;73.80
31619;DHT22;18230;51.502;7.108;2023-07-09T11:20:05;35.40;70.40
31619;DHT22;18230;51.502;7.108;2023-07-09T11:25:14;35.50;69.00
31619;DHT22;18230;51.502;7.108;2023-07-09T11:30:24;35.50;68.40
31619;DHT22;18230;51.502;7.108;2023-07-09T11:35:44;35.60;66.70
31619;DHT22;18230;51.502;7.108;2023-07-09T11:40:56;35.70;65.40
31619;DHT22;18230;51.502;7.108;2023-07-09T11:46:03;35.70;65.30
31619;DHT22;18230;51.502;7.108;2023-07-09T11:51:17;35.70;64.10
31619;DHT22;18230;51.502;7.108;2023-07-09T11:56:23;35.90;61.80
31619;DHT22;18230;51.502;7.108;2023-07-09T12:01:36;36.10;62.10
31619;DHT22;18230;51.502;7.108;2023-07-09T12:06:40;36.00;60.90
31619;DHT22;18230;51.502;7.108;2023-07-09T12:11:44;35.90;61.90
31619;DHT22;18230;51.502;7.108;2023-07-09T12:16:51;36.00;61.50
31619;DHT22;18230;51.502;7.108;2023-07-09T12:21:55;36.10;60.50
31619;DHT22;18230;51.502;7.108;2023-07-09T12:26:59;35.90;61.10
31619;DHT22;18230;51.502;7.108;2023-07-09T12:32:05;36.20;61.00
31619;DHT22;18230;51.502;7.108;2023-07-09T12:37:15;36.50;60.60
31619;DHT22;18230;51.502;7.108;2023-07-09T12:42:18;36.50;59.40
31619;DHT22;18230;51.502;7.108;2023-07-09T12:47:20;36.70;58.30
31619;DHT22;18230;51.502;7.108;2023-07-09T12:52:23;36.80;58.70
31619;DHT22;18230;51.502;7.108;2023-07-09T12:57:25;36.70;58.00
31619;DHT22;18230;51.502;7.108;2023-07-09T13:02:28;36.80;57.70
31619;DHT22;18230;51.502;7.108;2023-07-09T13:07:36;36.80;57.40
31619;DHT22;18230;51.502;7.108;2023-07-09T13:12:39;36.80;57.40
31619;DHT22;18230;51.502;7.108;2023-07-09T13:17:42;36.90;58.00
31619;DHT22;18230;51.502;7.108;2023-07-09T13:22:43;36.90;57.10
31619;DHT22;18230;51.502;7.108;2023-07-09T13:27:45;36.90;57.80
31619;DHT22;18230;51.502;7.108;2023-07-09T13:32:48;36.80;58.10
31619;DHT22;18230;51.502;7.108;2023-07-09T13:37:49;36.70;58.80
31619;DHT22;18230;51.502;7.108;2023-07-09T13:42:49;36.60;58.90
31619;DHT22;18230;51.502;7.108;2023-07-09T13:47:51;36.60;57.80
31619;DHT22;18230;51.502;7.108;2023-07-09T13:52:52;36.50;58.20
31619;DHT22;18230;51.502;7.108;2023-07-09T13:57:53;36.30;59.20
31619;DHT22;18230;51.502;7.108;2023-07-09T14:02:54;36.10;60.30
31619;DHT22;18230;51.502;7.108;2023-07-09T14:07:56;35.80;60.50
31619;DHT22;18230;51.502;7.108;2023-07-09T14:12:57;35.60;62.10
31619;DHT22;18230;51.502;7.108;2023-07-09T14:17:58;35.30;60.60
31619;DHT22;18230;51.502;7.108;2023-07-09T14:22:59;35.10;65.10
31619;DHT22;18230;51.502;7.108;2023-07-09T14:27:59;34.70;69.60
31619;DHT22;18230;51.502;7.108;2023-07-09T14:33:00;34.50;72.00
31619;DHT22;18230;51.502;7.108;2023-07-09T14:38:01;34.00;83.10
31619;DHT22;18230;51.502;7.108;2023-07-09T14:43:04;32.00;92.30
31619;DHT22;18230;51.502;7.108;2023-07-09T14:48:23;29.40;99.90
31619;DHT22;18230;51.502;7.108;2023-07-09T14:53:25;27.80;99.90
31619;DHT22;18230;51.502;7.108;2023-07-09T14:58:26;26.40;99.90
31619;DHT22;18230;51.502;7.108;2023-07-09T15:03:28;25.60;99.90
31619;DHT22;18230;51.502;7.108;2023-07-09T15:08:30;24.80;99.90
31619;DHT22;18230;51.502;7.108;2023-07-09T15:13:33;24.70;99.90
31619;DHT22;18230;51.502;7.108;2023-07-09T15:18:34;24.70;99.90
31619;DHT22;18230;51.502;7.108;2023-07-09T15:23:41;24.50;99.90
31619;DHT22;18230;51.502;7.108;2023-07-09T15:28:44;24.60;99.90
31619;DHT22;18230;51.502;7.108;2023-07-09T15:33:49;24.40;99.90
31619;DHT22;18230;51.502;7.108;2023-07-09T15:38:50;24.20;99.90
31619;DHT22;18230;51.502;7.108;2023-07-09T15:43:51;24.10;99.90
31619;DHT22;18230;51.502;7.108;2023-07-09T15:48:56;23.70;99.90
31619;DHT22;18230;51.502;7.108;2023-07-09T15:53:57;23.70;99.90
31619;DHT22;18230;51.502;7.108;2023-07-09T15:58:58;23.70;99.90
31619;DHT22;18230;51.502;7.108;2023-07-09T16:04:01;23.50;99.90
31619;DHT22;18230;51.502;7.108;2023-07-09T16:09:09;23.50;99.90
31619;DHT22;18230;51.502;7.108;2023-07-09T16:14:26;23.50;99.90
31619;DHT22;18230;51.502;7.108;2023-07-09T16:19:30;23.50;99.90
31619;DHT22;18230;51.502;7.108;2023-07-09T16:24:33;23.60;99.90
31619;DHT22;18230;51.502;7.108;2023-07-09T16:29:34;23.80;99.90
31619;DHT22;18230;51.502;7.108;2023-07-09T16:34:35;23.80;99.90
31619;DHT22;18230;51.502;7.108;2023-07-09T16:39:40;23.90;99.90
31619;DHT22;18230;51.502;7.108;2023-07-09T16:44:41;24.00;99.90
31619;DHT22;18230;51.502;7.108;2023-07-09T16:49:42;24.30;99.90
31619;DHT22;18230;51.502;7.108;2023-07-09T16:54:43;24.40;99.90
31619;DHT22;18230;51.502;7.108;2023-07-09T16:59:44;24.50;99.90
31619;DHT22;18230;51.502;7.108;2023-07-09T17:04:45;24.70;99.90
31619;DHT22;18230;51.502;7.108;2023-07-09T17:09:47;24.90;99.90
31619;DHT22;18230;51.502;7.108;2023-07-09T17:14:48;25.00;99.90
31619;DHT22;18230;51.502;7.108;2023-07-09T17:19:48;25.00;99.90
31619;DHT22;18230;51.502;7.108;2023-07-09T17:24:49;24.80;99.90
31619;DHT22;18230;51.502;7.108;2023-07-09T17:29:50;24.90;99.90
31619;DHT22;18230;51.502;7.108;2023-07-09T17:34:51;24.80;99.90
31619;DHT22;18230;51.502;7.108;2023-07-09T17:39:52;24.90;99.90
31619;DHT22;18230;51.502;7.108;2023-07-09T17:44:52;25.10;99.90
31619;DHT22;18230;51.502;7.108;2023-07-09T17:49:53;25.40;99.90
31619;DHT22;18230;51.502;7.108;2023-07-09T17:54:54;25.80;99.90
31619;DHT22;18230;51.502;7.108;2023-07-09T17:59:55;26.10;99.90
31619;DHT22;18230;51.502;7.108;2023-07-09T18:04:56;26.20;99.90
31619;DHT22;18230;51.502;7.108;2023-07-09T18:09:58;26.00;99.90
31619;DHT22;18230;51.502;7.108;2023-07-09T18:14:59;26.10;99.90
31619;DHT22;18230;51.502;7.108;2023-07-09T18:20:01;26.30;99.90
31619;DHT22;18230;51.502;7.108;2023-07-09T18:25:02;26.40;99.90
31619;DHT22;18230;51.502;7.108;2023-07-09T18:30:03;26.70;99.90
31619;DHT22;18230;51.502;7.108;2023-07-09T18:35:23;26.60;99.90
31619;DHT22;18230;51.502;7.108;2023-07-09T18:40:29;26.30;99.90
31619;DHT22;18230;51.502;7.108;2023-07-09T18:45:31;26.20;99.90
31619;DHT22;18230;51.502;7.108;2023-07-09T18:50:32;26.20;99.90
31619;DHT22;18230;51.502;7.108;2023-07-09T18:55:33;26.20;99.90
31619;DHT22;18230;51.502;7.108;2023-07-09T19:00:34;26.30;99.90
31619;DHT22;18230;51.502;7.108;2023-07-09T19:05:35;26.20;99.90
31619;DHT22;18230;51.502;7.108;2023-07-09T19:10:36;26.00;99.90
31619;DHT22;18230;51.502;7.108;2023-07-09T19:15:37;25.90;99.90
31619;DHT22;18230;51.502;7.108;2023-07-09T19:20:39;25.70;99.90
31619;DHT22;18230;51.502;7.108;2023-07-09T19:25:40;25.50;99.90
31619;DHT22;18230;51.502;7.108;2023-07-09T19:30:42;25.30;99.90
31619;DHT22;18230;51.502;7.108;2023-07-09T19:35:43;25.20;99.90
31619;DHT22;18230;51.502;7.108;2023-07-09T19:40:44;25.10;99.90
31619;DHT22;18230;51.502;7.108;2023-07-09T19:45:47;25.00;99.90
31619;DHT22;18230;51.502;7.108;2023-07-09T19:50:48;24.90;99.90
31619;DHT22;18230;51.502;7.108;2023-07-09T19:55:50;24.80;99.90
31619;DHT22;18230;51.502;7.108;2023-07-09T20:00:52;24.70;99.90
31619;DHT22;18230;51.502;7.108;2023-07-09T20:05:56;24.60;99.90
31619;DHT22;18230;51.502;7.108;2023-07-09T20:11:00;24.50;99.90
31619;DHT22;18230;51.502;7.108;2023-07-09T20:16:01;24.40;99.90
31619;DHT22;18230;51.502;7.108;2023-07-09T20:21:15;24.40;99.90
31619;DHT22;18230;51.502;7.108;2023-07-09T20:26:17;24.30;99.90
31619;DHT22;18230;51.502;7.108;2023-07-09T20:31:23;24.30;99.90
31619;DHT22;18230;51.502;7.108;2023-07-09T20:36:24;24.20;99.90
31619;DHT22;18230;51.502;7.108;2023-07-09T20:41:25;24.20;99.90
31619;DHT22;18230;51.502;7.108;2023-07-09T20:46:28;24.10;99.90
31619;DHT22;18230;51.502;7.108;2023-07-09T20:51:29;24.10;99.90
31619;DHT22;18230;51.502;7.108;2023-07-09T20:56:29;24.00;99.90
31619;DHT22;18230;51.502;7.108;2023-07-09T21:01:31;23.90;99.90
31619;DHT22;18230;51.502;7.108;2023-07-09T21:06:32;23.80;99.90
31619;DHT22;18230;51.502;7.108;2023-07-09T21:11:33;23.70;99.90
31619;DHT22;18230;51.502;7.108;2023-07-09T21:16:33;23.70;99.90
31619;DHT22;18230;51.502;7.108;2023-07-09T21:21:34;23.70;99.90
31619;DHT22;18230;51.502;7.108;2023-07-09T21:26:35;23.50;99.90
31619;DHT22;18230;51.502;7.108;2023-07-09T21:31:35;23.30;99.90
31619;DHT22;18230;51.502;7.108;2023-07-09T21:36:36;23.30;99.90
31619;DHT22;18230;51.502;7.108;2023-07-09T21:41:37;23.30;99.90
31619;DHT22;18230;51.502;7.108;2023-07-09T21:46:38;23.20;99.90
31619;DHT22;18230;51.502;7.108;2023-07-09T21:51:39;23.00;99.90
31619;DHT22;18230;51.502;7.108;2023-07-09T21:56:40;23.20;99.90
31619;DHT22;18230;51.502;7.108;2023-07-09T22:01:41;23.10;99.90
31619;DHT22;18230;51.502;7.108;2023-07-09T22:06:44;23.10;99.90
31619;DHT22;18230;51.502;7.108;2023-07-09T22:11:45;23.00;99.90
31619;DHT22;18230;51.502;7.108;2023-07-09T22:16:49;22.90;99.90
31619;DHT22;18230;51.502;7.108;2023-07-09T22:21:50;22.80;99.90
31619;DHT22;18230;51.502;7.108;2023-07-09T22:26:51;22.80;99.90
31619;DHT22;18230;51.502;7.108;2023-07-09T22:31:52;22.70;99.90
31619;DHT22;18230;51.502;7.108;2023-07-09T22:36:53;22.70;99.90
31619;DHT22;18230;51.502;7.108;2023-07-09T22:41:54;22.60;99.90
31619;DHT22;18230;51.502;7.108;2023-07-09T22:46:56;22.60;99.90
31619;DHT22;18230;51.502;7.108;2023-07-09T22:51:57;22.50;99.90
31619;DHT22;18230;51.502;7.108;2023-07-09T22:56:58;22.50;99.90
31619;DHT22;18230;51.502;7.108;2023-07-09T23:01:59;22.50;99.90
31619;DHT22;18230;51.502;7.108;2023-07-09T23:07:00;22.30;99.90
31619;DHT22;18230;51.502;7.108;2023-07-09T23:12:01;22.30;99.90
31619;DHT22;18230;51.502;7.108;2023-07-09T23:17:07;22.20;99.90
31619;DHT22;18230;51.502;7.108;2023-07-09T23:22:12;22.30;99.90
31619;DHT22;18230;51.502;7.108;2023-07-09T23:27:17;22.30;99.90
31619;DHT22;18230;51.502;7.108;2023-07-09T23:32:18;22.20;99.90
31619;DHT22;18230;51.502;7.108;2023-07-09T23:37:19;22.10;99.90
31619;DHT22;18230;51.502;7.108;2023-07-09T23:42:20;22.20;99.90
31619;DHT22;18230;51.502;7.108;2023-07-09T23:47:21;22.20;99.90
31619;DHT22;18230;51.502;7.108;2023-07-09T23:52:22;22.10;99.90
31619;DHT22;18230;51.502;7.108;2023-07-09T23:57:23;22.10;99.90
